sensor_id;sensor_type;location;lat;lon;timestamp;pressure;altitude;pressure_sealevel;temperature;humidity
36514;BME280;66331;46.796;9.824;2023-02-28T00:01:14;84207.00;;;-6.20;43.42
36514;BME280;66331;46.796;9.824;2023-02-28T00:03:41;84211.28;;;-6.56;43.89
36514;BME280;66331;46.796;9.824;2023-02-28T00:06:09;84206.27;;;-6.59;44.00
36514;BME280;66331;46.796;9.824;2023-02-28T00:08:36;84202.40;;;-7.25;44.86
36514;BME280;66331;46.796;9.824;2023-02-28T00:11:03;84207.20;;;-6.14;43.39
36514;BME280;66331;46.796;9.824;2023-02-28T00:13:31;84204.99;;;-6.22;44.00
36514;BME280;66331;46.796;9.824;2023-02-28T00:15:59;84201.97;;;-6.35;43.86
36514;BME280;66331;46.796;9.824;2023-02-28T00:18:26;84201.40;;;-7.51;45.65
36514;BME280;66331;46.796;9.824;2023-02-28T00:20:53;84201.72;;;-6.79;44.10
36514;BME280;66331;46.796;9.824;2023-02-28T00:23:20;84201.91;;;-6.93;44.51
36514;BME280;66331;46.796;9.824;2023-02-28T00:25:47;84200.20;;;-7.09;44.63
36514;BME280;66331;46.796;9.824;2023-02-28T00:28:15;84198.54;;;-7.08;44.59
36514;BME280;66331;46.796;9.824;2023-02-28T00:30:41;84197.43;;;-6.59;44.23
36514;BME280;66331;46.796;9.824;2023-02-28T00:33:08;84200.13;;;-6.59;44.99
36514;BME280;66331;46.796;9.824;2023-02-28T00:35:36;84197.99;;;-6.84;45.00
36514;BME280;66331;46.796;9.824;2023-02-28T00:38:03;84205.10;;;-7.90;48.04
36514;BME280;66331;46.796;9.824;2023-02-28T00:40:30;84198.36;;;-7.27;46.48
36514;BME280;66331;46.796;9.824;2023-02-28T00:42:57;84205.67;;;-7.91;47.58
36514;BME280;66331;46.796;9.824;2023-02-28T00:45:24;84204.09;;;-8.29;48.35
36514;BME280;66331;46.796;9.824;2023-02-28T00:47:51;84205.29;;;-8.51;49.14
36514;BME280;66331;46.796;9.824;2023-02-28T00:50:19;84199.47;;;-7.27;46.58
36514;BME280;66331;46.796;9.824;2023-02-28T00:52:46;84197.17;;;-7.13;46.32
36514;BME280;66331;46.796;9.824;2023-02-28T00:55:14;84195.87;;;-6.18;44.80
36514;BME280;66331;46.796;9.824;2023-02-28T00:57:43;84197.96;;;-7.38;46.54
36514;BME280;66331;46.796;9.824;2023-02-28T01:00:11;84195.65;;;-6.83;45.24
36514;BME280;66331;46.796;9.824;2023-02-28T01:02:38;84199.68;;;-7.08;46.22
36514;BME280;66331;46.796;9.824;2023-02-28T01:05:06;84203.55;;;-7.12;45.94
36514;BME280;66331;46.796;9.824;2023-02-28T01:07:33;84207.42;;;-8.36;48.44
36514;BME280;66331;46.796;9.824;2023-02-28T01:10:01;84208.15;;;-7.89;48.04
36514;BME280;66331;46.796;9.824;2023-02-28T01:12:28;84209.46;;;-8.29;49.91
36514;BME280;66331;46.796;9.824;2023-02-28T01:14:56;84209.47;;;-8.55;49.68
36514;BME280;66331;46.796;9.824;2023-02-28T01:17:23;84207.88;;;-7.95;48.36
36514;BME280;66331;46.796;9.824;2023-02-28T01:19:54;84210.99;;;-7.93;48.41
36514;BME280;66331;46.796;9.824;2023-02-28T01:22:21;84215.53;;;-8.79;49.53
36514;BME280;66331;46.796;9.824;2023-02-28T01:24:49;84216.49;;;-8.86;49.83
36514;BME280;66331;46.796;9.824;2023-02-28T01:27:17;84219.07;;;-8.40;49.21
36514;BME280;66331;46.796;9.824;2023-02-28T01:29:45;84222.64;;;-7.68;46.54
36514;BME280;66331;46.796;9.824;2023-02-28T01:32:12;84225.27;;;-7.39;45.74
36514;BME280;66331;46.796;9.824;2023-02-28T01:34:39;84227.40;;;-7.80;46.25
36514;BME280;66331;46.796;9.824;2023-02-28T01:37:07;84222.78;;;-7.28;45.96
36514;BME280;66331;46.796;9.824;2023-02-28T01:39:34;84221.88;;;-7.55;46.40
36514;BME280;66331;46.796;9.824;2023-02-28T01:42:01;84219.99;;;-6.68;44.72
36514;BME280;66331;46.796;9.824;2023-02-28T01:45:04;84220.40;;;-6.92;44.82
36514;BME280;66331;46.796;9.824;2023-02-28T01:47:36;84221.96;;;-7.13;45.00
36514;BME280;66331;46.796;9.824;2023-02-28T01:50:09;84220.25;;;-6.50;44.26
36514;BME280;66331;46.796;9.824;2023-02-28T01:52:40;84221.67;;;-6.97;44.83
36514;BME280;66331;46.796;9.824;2023-02-28T01:55:08;84218.81;;;-6.55;44.20
36514;BME280;66331;46.796;9.824;2023-02-28T01:57:42;84226.98;;;-7.86;46.84
36514;BME280;66331;46.796;9.824;2023-02-28T02:00:12;84227.09;;;-7.59;46.19
36514;BME280;66331;46.796;9.824;2023-02-28T02:02:42;84223.95;;;-7.83;46.70
